Time;durP1;ratioP1;P1;durP2;ratioP2;P2;SDS_P1;SDS_P2;PMS_P1;PMS_P2;Temp;Humidity;BMP_temperature;BMP_pressure;BME280_temperature;BME280_humidity;BME280_pressure;Samples;Min_cycle;Max_cycle;Signal;HPM_P1;HPM_P2
2022/01/14 00:00:06;;;;;;;46.65;24.07;;;;;;;3.63;100.00;100725.92;1849658;76;25686;-72
2022/01/14 00:02:34;;;;;;;39.63;21.62;;;;;;;3.64;100.00;100729.41;1849510;77;26541;-72
2022/01/14 00:05:00;;;;;;;41.63;22.93;;;;;;;3.63;100.00;100730.48;1810883;77;25700;-72
2022/01/14 00:07:27;;;;;;;42.62;22.67;;;;;;;3.63;100.00;100729.14;1849545;76;25585;-73
2022/01/14 00:09:54;;;;;;;43.52;21.30;;;;;;;3.63;100.00;100725.92;1849399;77;25873;-73
2022/01/14 00:12:26;;;;;;;36.33;21.23;;;;;;;3.63;100.00;100731.28;1830860;77;25779;-72
2022/01/14 00:15:23;;;;;;;37.70;22.48;;;;;;;3.64;100.00;100732.08;1849932;76;27307;-72
2022/01/14 00:17:27;;;;;;;41.08;21.27;;;;;;;3.64;100.00;100720.04;1845632;77;25666;-72
2022/01/14 00:19:53;;;;;;;37.80;20.17;;;;;;;3.63;100.00;100725.13;1843648;77;25550;-73
2022/01/14 00:22:20;;;;;;;36.70;20.35;;;;;;;3.63;100.00;100707.20;1811264;77;25605;-73
2022/01/14 00:33:02;;;;;;;36.58;19.60;;;;;;;3.61;100.00;100673.22;1843514;77;25442;-73
2022/01/14 00:35:26;;;;;;;40.73;21.17;;;;;;;3.62;100.00;100680.16;1844156;76;25638;-73
2022/01/14 00:37:54;;;;;;;36.25;19.75;;;;;;;3.63;100.00;100680.98;1843667;77;25742;-73
2022/01/14 00:40:21;;;;;;;41.08;19.25;;;;;;;3.63;100.00;100677.77;1836493;76;27480;-73
2022/01/14 00:42:50;;;;;;;34.45;20.17;;;;;;;3.63;100.00;100669.75;1810135;78;25273;-73
2022/01/14 00:45:17;;;;;;;41.13;20.10;;;;;;;3.65;100.00;100668.95;1810027;79;25699;-73
2022/01/14 00:47:44;;;;;;;36.40;19.52;;;;;;;3.65;100.00;100671.63;1810588;78;25618;-71
2022/01/14 00:50:14;;;;;;;34.60;19.45;;;;;;;3.64;100.00;100661.98;1810684;78;25532;-73
2022/01/14 00:52:42;;;;;;;35.00;18.92;;;;;;;3.64;100.00;100665.20;1810946;78;27400;-71
2022/01/14 00:55:14;;;;;;;46.28;23.42;;;;;;;3.65;100.00;100669.50;1810657;79;25602;-72
2022/01/14 01:00:21;;;;;;;41.45;20.08;;;;;;;3.67;100.00;100663.36;1765414;80;25660;-73
2022/01/14 01:02:48;;;;;;;36.42;20.15;;;;;;;3.67;100.00;100658.01;1765613;81;25692;-72
2022/01/14 01:05:15;;;;;;;35.30;17.92;;;;;;;3.66;100.00;100653.20;1765546;81;27409;-72
2022/01/14 01:07:45;;;;;;;34.23;18.82;;;;;;;3.68;100.00;100649.73;1765517;81;25746;-72
2022/01/14 01:10:17;;;;;;;29.07;18.05;;;;;;;3.67;100.00;100647.30;1765591;81;25640;-72
2022/01/14 01:15:15;;;;;;;32.58;18.10;;;;;;;3.68;99.94;100635.02;1765635;81;25444;-72
2022/01/14 01:17:41;;;;;;;30.92;18.77;;;;;;;3.69;99.86;100629.92;1765270;80;27495;-72
2022/01/14 01:20:13;;;;;;;37.10;18.42;;;;;;;3.69;99.80;100625.91;1765343;81;25680;-72
2022/01/14 01:22:41;;;;;;;29.55;18.32;;;;;;;3.69;99.81;100620.56;1740957;81;25598;-72
2022/01/14 01:25:11;;;;;;;33.60;18.45;;;;;;;3.70;99.69;100620.84;1765373;81;26169;-72
2022/01/14 01:27:40;;;;;;;;;;;;;;;3.70;99.71;100620.84;1768034;81;25684;-71
2022/01/14 01:30:16;;;;;;;31.20;18.27;;;;;;;3.72;99.64;100620.59;1749645;82;27591;-71
2022/01/14 01:32:41;;;;;;;32.60;17.77;;;;;;;3.70;99.71;100613.36;1747386;80;25839;-71
2022/01/14 01:35:08;;;;;;;36.38;18.85;;;;;;;3.71;99.67;100610.44;1773449;80;25507;-72
2022/01/14 01:37:35;;;;;;;31.70;18.12;;;;;;;3.72;99.60;100605.34;1774736;79;25691;-73
2022/01/14 01:40:03;;;;;;;36.83;19.25;;;;;;;3.73;99.50;100594.92;1816498;79;25538;-72
2022/01/14 01:42:31;;;;;;;33.02;16.77;;;;;;;3.73;99.44;100610.18;1816470;78;28031;-72
2022/01/14 01:44:59;;;;;;;33.88;17.75;;;;;;;3.71;99.45;100606.42;1816336;79;25592;-72
2022/01/14 01:47:29;;;;;;;33.60;19.30;;;;;;;3.74;99.41;100605.09;1798107;79;25554;-71
2022/01/14 01:49:56;;;;;;;39.33;23.00;;;;;;;3.73;99.38;100605.63;1816573;79;26159;-71
2022/01/14 01:52:24;;;;;;;42.15;23.27;;;;;;;3.74;99.35;100607.77;1816474;79;25447;-70
2022/01/14 01:54:51;;;;;;;32.30;18.12;;;;;;;3.75;99.24;100592.00;1816441;78;27307;-72
2022/01/14 01:57:18;;;;;;;35.35;20.40;;;;;;;3.74;99.21;100580.47;1816326;79;25445;-72
2022/01/14 01:59:45;;;;;;;31.82;18.62;;;;;;;3.74;99.08;100573.78;1816451;78;25459;-72
2022/01/14 02:02:11;;;;;;;34.23;17.85;;;;;;;3.73;99.11;100573.52;1816426;78;25605;-71
2022/01/14 02:04:38;;;;;;;32.10;18.02;;;;;;;3.74;99.01;100571.64;1816446;79;25446;-71
2022/01/14 02:07:05;;;;;;;34.33;18.80;;;;;;;3.73;99.03;100564.70;1798183;79;27821;-71
2022/01/14 02:09:32;;;;;;;38.50;19.23;;;;;;;3.72;99.02;100555.05;1816333;78;25807;-72
2022/01/14 02:11:59;;;;;;;31.17;18.05;;;;;;;3.72;99.00;100550.49;1816465;78;25548;-72
2022/01/14 02:22:55;;;;;;;37.42;18.65;;;;;;;3.74;98.95;100553.71;1816340;79;25437;-70
2022/01/14 02:25:30;;;;;;;30.23;17.40;;;;;;;3.74;98.86;100544.34;1816459;78;25455;-70
2022/01/14 02:28:08;;;;;;;33.23;17.02;;;;;;;3.74;98.89;100537.66;1816416;79;25637;-70
2022/01/14 02:30:40;;;;;;;33.95;17.75;;;;;;;3.74;98.77;100525.62;1816507;79;25368;-71
2022/01/14 02:33:09;;;;;;;34.45;17.07;;;;;;;3.74;98.74;100520.80;1816489;79;27370;-71
2022/01/14 02:35:38;;;;;;;36.35;17.35;;;;;;;3.73;98.65;100521.89;1816506;79;25431;-71
2022/01/14 02:38:06;;;;;;;30.23;16.43;;;;;;;3.73;98.73;100502.62;1816722;78;25573;-72
2022/01/14 02:40:33;;;;;;;34.83;18.32;;;;;;;3.74;98.77;100500.73;1816439;79;26163;-71
2022/01/14 02:43:01;;;;;;;30.88;16.60;;;;;;;3.74;98.69;100482.80;1816542;79;25425;-71
2022/01/14 02:45:32;;;;;;;32.13;16.75;;;;;;;3.74;98.74;100472.11;1816535;78;27370;-71
2022/01/14 02:47:58;;;;;;;31.55;17.05;;;;;;;3.75;98.74;100474.27;1816625;78;25363;-70
2022/01/14 02:50:27;;;;;;;37.33;17.25;;;;;;;3.74;98.76;100472.11;1816734;79;25302;-70
2022/01/14 02:55:30;;;;;;;30.12;16.25;;;;;;;3.74;98.83;100468.09;1816480;78;25433;-73
2022/01/14 02:57:59;;;;;;;30.05;17.00;;;;;;;3.75;98.83;100456.88;1816454;78;28993;-73
2022/01/14 03:00:31;;;;;;;33.77;16.30;;;;;;;3.73;99.00;100454.46;1816593;78;25731;-71
2022/01/14 03:03:00;;;;;;;33.85;17.70;;;;;;;3.74;99.05;100466.75;1816419;79;25608;-72
2022/01/14 03:05:30;;;;;;;30.32;15.53;;;;;;;3.74;99.08;100462.73;1816482;78;26273;-72
2022/01/14 03:07:57;;;;;;;31.85;16.67;;;;;;;3.73;99.55;100449.65;1816467;79;25435;-72
2022/01/14 03:10:24;;;;;;;32.70;17.37;;;;;;;3.72;99.24;100464.88;1816537;79;27349;-71
2022/01/14 03:12:51;;;;;;;28.90;15.88;;;;;;;3.71;99.52;100462.45;1816495;79;25381;-71
2022/01/14 03:15:19;;;;;;;32.10;17.35;;;;;;;3.70;99.43;100471.02;1798501;79;25453;-71
2022/01/14 03:17:45;;;;;;;31.77;16.30;;;;;;;3.70;99.55;100463.00;1816598;78;25711;-71
2022/01/14 03:20:36;;;;;;;29.72;17.05;;;;;;;3.69;99.47;100492.14;1816883;79;25603;-71
2022/01/14 03:22:52;;;;;;;31.10;15.23;;;;;;;3.69;99.52;100481.44;1814666;79;27304;-70
2022/01/14 03:27:55;;;;;;;31.27;15.40;;;;;;;3.69;99.92;100472.62;1816893;79;25439;-71
2022/01/14 03:30:21;;;;;;;30.57;16.20;;;;;;;3.68;99.94;100478.51;1766982;79;26340;-71
2022/01/14 03:32:48;;;;;;;27.00;14.63;;;;;;;3.70;99.97;100482.27;1816900;79;25431;-71
2022/01/14 03:35:15;;;;;;;30.12;14.55;;;;;;;3.70;99.89;100493.77;1800887;79;27197;-71
2022/01/14 03:37:41;;;;;;;27.98;13.08;;;;;;;3.70;100.00;100496.44;1816758;79;25561;-71
2022/01/14 03:40:10;;;;;;;24.98;13.58;;;;;;;3.71;100.00;100495.39;1816873;79;25606;-71
2022/01/14 03:42:36;;;;;;;30.62;13.40;;;;;;;3.73;100.00;100486.56;1800993;79;25616;-71
2022/01/14 03:45:05;;;;;;;32.58;15.88;;;;;;;3.76;100.00;100480.42;1766937;79;25634;-71
2022/01/14 03:47:32;;;;;;;24.45;13.45;;;;;;;3.77;100.00;100481.50;1801289;79;29605;-71
2022/01/14 03:49:58;;;;;;;23.67;12.85;;;;;;;3.78;100.00;100470.25;1816767;79;25378;-71
2022/01/14 03:52:25;;;;;;;22.60;12.73;;;;;;;3.79;100.00;100457.16;1816845;79;25456;-70
2022/01/14 03:54:52;;;;;;;24.07;12.25;;;;;;;3.81;100.00;100459.84;1816762;79;26340;-71
2022/01/14 03:57:18;;;;;;;22.13;12.23;;;;;;;3.83;100.00;100466.27;1816877;79;25383;-71
2022/01/14 03:59:45;;;;;;;23.77;11.48;;;;;;;3.84;100.00;100467.89;1816796;79;27901;-71
2022/01/14 04:02:11;;;;;;;24.67;12.37;;;;;;;3.87;100.00;100475.41;1816746;79;25523;-71
2022/01/14 04:04:37;;;;;;;21.70;11.35;;;;;;;3.87;100.00;100480.22;1816751;79;25567;-72
2022/01/14 04:07:04;;;;;;;23.30;12.35;;;;;;;3.87;100.00;100474.07;1816806;79;25833;-71
2022/01/14 04:09:36;;;;;;;26.35;12.55;;;;;;;3.89;100.00;100475.95;1816880;79;25370;-71
2022/01/14 04:12:01;;;;;;;20.27;11.50;;;;;;;3.90;100.00;100476.23;1801185;79;28261;-71
2022/01/14 04:16:57;;;;;;;17.23;9.98;;;;;;;3.89;100.00;100425.89;1815892;79;25599;-71
2022/01/14 04:19:28;;;;;;;20.85;11.45;;;;;;;3.89;100.00;100443.83;1816685;77;25634;-71
2022/01/14 04:21:56;;;;;;;22.27;10.98;;;;;;;3.89;100.00;100443.30;1816587;79;25633;-71
2022/01/14 04:24:22;;;;;;;19.82;10.50;;;;;;;3.90;100.00;100446.80;1816545;78;27322;-71
2022/01/14 04:26:49;;;;;;;16.87;10.70;;;;;;;3.89;100.00;100431.79;1816475;79;25594;-72
2022/01/14 04:29:15;;;;;;;20.77;11.20;;;;;;;3.89;100.00;100438.48;1816556;78;25447;-71
2022/01/14 04:31:41;;;;;;;19.20;10.80;;;;;;;3.90;100.00;100437.42;1816515;79;25678;-71
2022/01/14 04:34:08;;;;;;;19.48;10.18;;;;;;;3.89;100.00;100429.11;1816576;79;25576;-71
2022/01/14 04:36:35;;;;;;;19.15;10.60;;;;;;;3.89;100.00;100403.15;1816542;79;27433;-71
2022/01/14 04:39:02;;;;;;;17.73;10.40;;;;;;;3.89;100.00;100408.50;1816433;78;25609;-72
2022/01/14 04:41:28;;;;;;;17.75;10.63;;;;;;;3.89;100.00;100407.70;1816526;79;25565;-73
2022/01/14 04:43:55;;;;;;;16.52;9.53;;;;;;;3.89;100.00;100392.45;1798288;79;25518;-72
2022/01/14 04:48:56;;;;;;;15.70;9.60;;;;;;;3.90;100.00;100386.04;1816511;79;27326;-72
2022/01/14 04:51:26;;;;;;;18.90;10.15;;;;;;;3.91;100.00;100397.54;1816405;78;25678;-72
2022/01/14 04:53:56;;;;;;;19.07;9.45;;;;;;;3.91;100.00;100390.30;1798205;79;25663;-71
2022/01/14 04:56:22;;;;;;;17.98;10.28;;;;;;;3.91;100.00;100389.52;1816465;79;25637;-71
2022/01/14 04:58:49;;;;;;;18.20;10.72;;;;;;;3.91;100.00;100382.82;1816516;79;25415;-71
2022/01/14 05:01:15;;;;;;;16.93;9.80;;;;;;;3.92;100.00;100390.59;1816504;78;28047;-72
2022/01/14 05:03:42;;;;;;;20.25;10.45;;;;;;;3.92;100.00;100371.06;1816395;78;25510;-72
2022/01/14 05:06:08;;;;;;;19.37;10.20;;;;;;;3.93;100.00;100382.02;1816476;79;25536;-72
2022/01/14 05:08:39;;;;;;;15.78;9.68;;;;;;;3.93;100.00;100381.50;1816472;79;25639;-72
2022/01/14 05:13:45;;;;;;;20.27;10.88;;;;;;;3.95;100.00;100360.34;1816647;78;27327;-71
2022/01/14 05:16:12;;;;;;;16.95;11.40;;;;;;;3.96;100.00;100368.12;1816421;79;25603;-71
2022/01/14 05:18:39;;;;;;;22.22;11.40;;;;;;;3.98;100.00;100349.13;1816469;78;25403;-72
2022/01/14 05:21:06;;;;;;;19.82;10.28;;;;;;;3.99;100.00;100368.94;1816535;79;25590;-72
2022/01/14 05:23:33;;;;;;;21.70;12.23;;;;;;;4.00;100.00;100362.53;1816604;79;25449;-71
2022/01/14 05:26:00;;;;;;;20.97;11.53;;;;;;;4.01;100.00;100358.77;1816416;79;26860;-71
2022/01/14 05:28:27;;;;;;;20.00;11.25;;;;;;;4.01;100.00;100348.06;1816365;79;25393;-71
2022/01/14 05:30:54;;;;;;;19.85;10.50;;;;;;;4.04;100.00;100329.34;1816486;78;25412;-71
2022/01/14 05:33:21;;;;;;;19.25;10.58;;;;;;;4.05;100.00;100322.39;1816391;79;26170;-71
2022/01/14 05:35:48;;;;;;;17.70;11.08;;;;;;;4.07;100.00;100320.25;1798185;79;25672;-71
2022/01/14 05:38:14;;;;;;;15.85;10.00;;;;;;;4.08;99.91;100328.53;1816481;79;27888;-72
2022/01/14 05:40:41;;;;;;;18.17;10.40;;;;;;;4.10;99.80;100321.58;1782532;79;25399;-72
2022/01/14 05:43:08;;;;;;;17.57;10.43;;;;;;;4.10;99.72;100321.06;1805344;79;25434;-72
2022/01/14 05:45:34;;;;;;;17.25;10.40;;;;;;;4.12;99.62;100330.17;1805279;78;26367;-72
2022/01/14 05:48:02;;;;;;;15.80;8.85;;;;;;;4.14;99.51;100321.84;1796339;79;25411;-72
2022/01/14 05:50:28;;;;;;;15.13;9.23;;;;;;;4.15;99.41;100315.44;1805308;79;27313;-72
2022/01/14 05:52:55;;;;;;;12.50;8.70;;;;;;;4.16;99.28;100317.05;1805248;79;25590;-72
2022/01/14 05:55:22;;;;;;;12.30;8.53;;;;;;;4.14;99.17;100307.95;1805323;79;25578;-71
2022/01/14 05:57:49;;;;;;;12.63;7.72;;;;;;;4.16;99.12;100311.70;1805304;79;26180;-71
2022/01/14 06:00:20;;;;;;;12.55;7.95;;;;;;;4.16;99.07;100318.39;1805344;79;25644;-71
2022/01/14 06:02:49;;;;;;;17.57;7.30;;;;;;;4.16;99.02;100307.69;1805403;78;28264;-71
2022/01/14 06:05:18;;;;;;;18.02;7.35;;;;;;;4.17;98.97;100320.81;1816538;79;25567;-72
2022/01/14 06:07:45;;;;;;;14.65;7.65;;;;;;;4.17;98.87;100320.81;1816483;79;25634;-72
2022/01/14 06:10:12;;;;;;;12.60;7.62;;;;;;;4.17;98.86;100316.80;1816531;79;25716;-72
2022/01/14 06:12:39;;;;;;;12.18;7.55;;;;;;;4.19;98.79;100311.14;1816573;79;25617;-72
2022/01/14 06:15:06;;;;;;;12.37;7.33;;;;;;;4.20;98.70;100304.19;1816683;78;27354;-72
2022/01/14 06:17:33;;;;;;;10.80;6.37;;;;;;;4.20;98.63;100290.01;1816372;79;25687;-72
2022/01/14 06:20:00;;;;;;;13.85;7.60;;;;;;;4.20;98.57;100298.83;1816904;79;25543;-72
2022/01/14 06:22:27;;;;;;;11.30;6.78;;;;;;;4.20;98.48;100287.33;1800827;79;26186;-72
2022/01/14 06:24:54;;;;;;;9.63;6.65;;;;;;;4.21;98.46;100274.23;1816517;79;25379;-72
2022/01/14 06:27:22;;;;;;;8.95;5.85;;;;;;;4.21;98.40;100272.89;1816685;79;27474;-72
2022/01/14 06:29:48;;;;;;;10.35;6.10;;;;;;;4.22;98.38;100273.14;1816730;78;25535;-72
2022/01/14 06:32:15;;;;;;;8.58;5.92;;;;;;;4.23;98.37;100268.06;1816806;79;25584;-71
2022/01/14 06:34:42;;;;;;;11.15;5.37;;;;;;;4.23;98.42;100273.41;1816668;79;25622;-71
2022/01/14 06:37:09;;;;;;;9.70;5.45;;;;;;;4.23;98.43;100265.38;1800751;79;25564;-72
2022/01/14 06:39:36;;;;;;;11.83;7.30;;;;;;;4.22;98.52;100253.87;1816714;78;27378;-72
2022/01/14 06:42:04;;;;;;;12.35;6.70;;;;;;;4.23;98.60;100254.13;1816656;79;25528;-72
2022/01/14 06:44:30;;;;;;;15.00;7.03;;;;;;;4.23;98.62;100256.80;1801107;79;25463;-72
2022/01/14 06:46:57;;;;;;;12.58;6.42;;;;;;;4.24;98.71;100279.84;1816794;79;25738;-72
2022/01/14 06:49:24;;;;;;;12.80;5.83;;;;;;;4.23;98.64;100274.20;1816921;79;25518;-72
2022/01/14 06:51:51;;;;;;;10.53;7.00;;;;;;;4.24;98.74;100281.70;1816784;79;26827;-71
2022/01/14 06:54:17;;;;;;;14.18;7.37;;;;;;;4.23;98.75;100271.53;1816744;79;25732;-71
2022/01/14 06:56:44;;;;;;;11.33;6.92;;;;;;;4.24;98.79;100272.33;1816882;79;25534;-72
2022/01/14 06:59:10;;;;;;;11.78;7.95;;;;;;;4.23;98.89;100244.76;1816853;79;25833;-72
2022/01/14 07:01:37;;;;;;;9.78;6.20;;;;;;;4.23;98.82;100252.79;1816920;79;25555;-72
2022/01/14 07:04:04;;;;;;;7.65;5.62;;;;;;;4.24;98.92;100267.80;1816887;79;27306;-72
2022/01/14 07:06:31;;;;;;;7.92;5.72;;;;;;;4.24;99.14;100254.92;1816755;78;25621;-72
2022/01/14 07:08:58;;;;;;;8.03;5.85;;;;;;;4.25;99.04;100257.34;1816890;79;25380;-72
2022/01/14 07:11:30;;;;;;;10.38;6.33;;;;;;;4.26;99.04;100248.25;1816735;79;25696;-72
2022/01/14 07:13:53;;;;;;;10.60;6.22;;;;;;;4.26;98.99;100250.13;1813361;79;25378;-72
2022/01/14 07:16:20;;;;;;;10.03;6.25;;;;;;;4.27;99.32;100243.17;1816706;78;27307;-72
2022/01/14 07:18:48;;;;;;;9.70;6.10;;;;;;;4.28;99.49;100257.35;1816750;79;25724;-71
2022/01/14 07:21:16;;;;;;;8.55;6.17;;;;;;;4.29;99.90;100234.84;1816894;79;25520;-72
2022/01/14 07:23:43;;;;;;;10.43;5.92;;;;;;;4.30;99.91;100235.12;1816845;79;25687;-72
2022/01/14 07:26:10;;;;;;;10.23;6.42;;;;;;;4.31;99.75;100234.06;1816888;79;25439;-71
2022/01/14 07:28:36;;;;;;;10.38;6.20;;;;;;;4.32;99.82;100234.86;1816871;79;27933;-72
2022/01/14 07:31:03;;;;;;;9.68;5.65;;;;;;;4.32;99.98;100225.48;1816815;78;25596;-72
2022/01/14 07:33:30;;;;;;;9.95;6.55;;;;;;;4.33;100.00;100233.80;1816857;79;25596;-71
2022/01/14 07:35:57;;;;;;;8.85;5.47;;;;;;;4.33;99.97;100232.45;1816883;78;26414;-71
2022/01/14 07:38:24;;;;;;;8.55;5.67;;;;;;;4.33;100.00;100229.78;1816950;79;25585;-71
2022/01/14 07:40:51;;;;;;;7.10;5.50;;;;;;;4.33;100.00;100214.50;1816846;79;27322;-71
2022/01/14 07:43:20;;;;;;;8.70;5.83;;;;;;;4.34;100.00;100220.66;1816801;79;25379;-70
2022/01/14 07:45:47;;;;;;;9.60;6.93;;;;;;;4.34;100.00;100212.08;1817117;79;25623;-70
2022/01/14 07:48:14;;;;;;;12.00;6.72;;;;;;;4.35;100.00;100218.26;1816819;79;26100;-71
2022/01/14 07:50:41;;;;;;;13.60;6.83;;;;;;;4.36;100.00;100215.83;1816914;79;25589;-72
2022/01/14 07:53:08;;;;;;;10.60;6.47;;;;;;;4.35;100.00;100204.32;1816919;79;27341;-70
2022/01/14 07:55:35;;;;;;;14.23;8.55;;;;;;;4.37;100.00;100208.07;1816770;79;25606;-71
2022/01/14 07:58:04;;;;;;;11.33;7.30;;;;;;;4.36;100.00;100201.09;1816895;79;25991;-71
2022/01/14 08:00:32;;;;;;;11.12;8.05;;;;;;;4.36;100.00;100194.41;1817008;79;25597;-71
2022/01/14 08:02:59;;;;;;;15.72;7.08;;;;;;;4.35;100.00;100182.90;1816831;79;25553;-71
2022/01/14 08:05:25;;;;;;;14.07;7.35;;;;;;;4.35;100.00;100178.88;1816850;79;27322;-71
2022/01/14 08:07:55;;;;;;;9.75;6.78;;;;;;;4.36;100.00;100187.19;1816704;79;25633;-70
2022/01/14 08:10:21;;;;;;;8.85;6.42;;;;;;;4.35;100.00;100174.86;1816627;78;25378;-72
2022/01/14 08:12:48;;;;;;;9.40;6.87;;;;;;;4.36;100.00;100175.14;1801009;79;25600;-72
2022/01/14 08:15:15;;;;;;;9.83;6.72;;;;;;;4.36;100.00;100181.84;1796168;79;25397;-72
2022/01/14 08:17:42;;;;;;;13.98;7.67;;;;;;;4.36;100.00;100179.16;1816888;79;27324;-72
2022/01/14 08:20:10;;;;;;;9.38;6.50;;;;;;;4.37;100.00;100147.27;1769458;79;25581;-71
2022/01/14 08:22:37;;;;;;;8.05;5.95;;;;;;;4.36;100.00;100156.91;1733870;81;25588;-72
2022/01/14 08:25:05;;;;;;;10.48;6.42;;;;;;;4.38;100.00;100152.91;1752803;81;25605;-72
2022/01/14 08:27:32;;;;;;;7.80;5.28;;;;;;;4.40;100.00;100141.92;1752748;81;25663;-72
2022/01/14 08:29:58;;;;;;;9.18;6.03;;;;;;;4.42;100.00;100139.77;1752771;81;28101;-72
2022/01/14 08:32:25;;;;;;;8.88;5.60;;;;;;;4.44;100.00;100142.97;1752695;81;25603;-71
2022/01/14 08:34:52;;;;;;;11.70;6.35;;;;;;;4.45;100.00;100142.70;1752791;81;25615;-72
2022/01/14 08:37:18;;;;;;;14.87;6.62;;;;;;;4.48;100.00;100120.73;1752749;81;25614;-72
2022/01/14 08:39:45;;;;;;;11.33;6.67;;;;;;;4.48;100.00;100130.12;1752826;81;25548;-71
2022/01/14 08:42:14;;;;;;;9.60;6.70;;;;;;;4.49;100.00;100139.77;1752781;81;27383;-71
2022/01/14 08:44:41;;;;;;;9.83;6.33;;;;;;;4.50;100.00;100145.92;1752619;81;25660;-72
2022/01/14 08:47:09;;;;;;;9.90;6.30;;;;;;;4.52;100.00;100141.63;1752734;81;25692;-72
2022/01/14 08:49:42;;;;;;;11.03;6.95;;;;;;;4.53;100.00;100147.23;1752693;81;25804;-72
2022/01/14 08:52:11;;;;;;;10.13;7.53;;;;;;;4.52;100.00;100122.88;1752774;81;25471;-72
2022/01/14 08:54:38;;;;;;;;;;;;;;;4.53;100.00;100133.33;1755359;81;27912;-70
2022/01/14 08:57:06;;;;;;;9.70;7.12;;;;;;;4.54;100.00;100132.78;1752661;81;25581;-71
2022/01/14 08:59:33;;;;;;;12.73;8.40;;;;;;;4.56;100.00;100144.02;1752866;81;25568;-72
2022/01/14 09:02:00;;;;;;;11.68;7.67;;;;;;;4.57;100.00;100149.11;1752742;81;26187;-72
2022/01/14 09:04:27;;;;;;;12.82;8.65;;;;;;;4.60;100.00;100137.86;1733751;81;25619;-72
2022/01/14 09:06:54;;;;;;;11.83;7.40;;;;;;;4.63;100.00;100129.80;1752918;81;27878;-73
2022/01/14 09:09:21;;;;;;;11.10;7.30;;;;;;;4.66;100.00;100133.27;1752912;81;25388;-73
2022/01/14 09:11:47;;;;;;;11.10;7.97;;;;;;;4.68;100.00;100141.83;1752771;81;25580;-72
2022/01/14 09:14:14;;;;;;;17.85;10.08;;;;;;;4.70;100.00;100133.01;1752731;81;25635;-73
2022/01/14 09:16:41;;;;;;;15.00;8.13;;;;;;;4.73;100.00;100133.78;1752771;81;25444;-72
2022/01/14 09:19:08;;;;;;;12.43;7.83;;;;;;;4.75;100.00;100126.81;1771709;78;27328;-73
2022/01/14 09:21:35;;;;;;;15.18;8.43;;;;;;;4.77;100.00;100117.98;1816417;79;25599;-72
2022/01/14 09:24:04;;;;;;;11.53;7.15;;;;;;;4.80;100.00;100139.67;1816518;79;25534;-72
2022/01/14 09:26:32;;;;;;;;;;;;;;;4.82;100.00;100133.49;1819090;79;25666;-73
2022/01/14 09:28:59;;;;;;;14.28;9.90;;;;;;;4.85;100.00;100126.25;1816509;79;25449;-73
2022/01/14 09:31:26;;;;;;;11.48;8.63;;;;;;;4.86;100.00;100111.75;1816495;78;28177;-72
2022/01/14 09:33:54;;;;;;;24.40;13.70;;;;;;;4.90;100.00;100109.33;1816408;78;25194;-73
2022/01/14 09:36:21;;;;;;;18.23;11.65;;;;;;;4.93;100.00;100124.86;1816540;79;25452;-71
2022/01/14 09:38:48;;;;;;;16.67;10.98;;;;;;;4.97;100.00;100125.11;1816465;79;26157;-71
2022/01/14 09:41:17;;;;;;;14.58;8.88;;;;;;;4.98;100.00;100111.98;1816497;78;25589;-72
2022/01/14 09:43:44;;;;;;;;;;;;;;;5.01;100.00;100115.45;1819242;79;27892;-71
2022/01/14 09:46:11;;;;;;;12.15;9.03;;;;;;;5.05;100.00;100112.47;1798048;79;25362;-71
2022/01/14 09:48:40;;;;;;;10.10;6.95;;;;;;;5.05;100.00;100109.80;1816482;78;25383;-71
2022/01/14 09:51:08;;;;;;;8.50;6.10;;;;;;;5.08;100.00;100095.84;1816463;78;25679;-72
2022/01/14 09:53:35;;;;;;;9.65;6.72;;;;;;;5.11;100.00;100093.95;1816520;79;25557;-72
2022/01/14 09:56:03;;;;;;;8.40;5.85;;;;;;;5.16;100.00;100085.06;1816505;78;27283;-72
2022/01/14 09:58:40;;;;;;;7.90;5.67;;;;;;;5.18;100.00;100085.61;1816374;79;25553;-72
2022/01/14 10:01:18;;;;;;;7.83;6.00;;;;;;;5.19;100.00;100092.55;1816366;78;25446;-72
2022/01/14 10:04:01;;;;;;;9.88;7.20;;;;;;;5.20;100.00;100082.89;1816591;78;26306;-72
2022/01/14 10:06:51;;;;;;;6.65;5.17;;;;;;;5.22;100.00;100076.70;1816484;78;25600;-73
2022/01/14 10:09:44;;;;;;;7.03;5.30;;;;;;;5.23;100.00;100076.98;1815058;78;27308;-72
2022/01/14 10:12:17;;;;;;;7.60;5.10;;;;;;;5.24;100.00;100079.94;1816105;78;25624;-71
2022/01/14 10:15:09;;;;;;;9.80;6.45;;;;;;;5.23;100.00;100068.93;1816180;78;25638;-72
2022/01/14 10:17:44;;;;;;;5.10;4.53;;;;;;;5.24;100.00;100065.19;1815912;78;25708;-71
2022/01/14 10:20:15;;;;;;;5.97;5.37;;;;;;;5.23;100.00;100053.39;1812713;79;25384;-71
2022/01/14 10:22:48;;;;;;;6.33;5.00;;;;;;;5.24;100.00;100059.82;1810498;79;28034;-72
2022/01/14 10:25:21;;;;;;;11.63;5.10;;;;;;;5.28;100.00;100052.53;1810070;79;25962;-72
2022/01/14 10:27:52;;;;;;;9.40;5.25;;;;;;;5.31;100.00;100056.00;1810448;79;25456;-73
2022/01/14 10:30:32;;;;;;;9.05;5.12;;;;;;;5.32;100.00;100046.89;1810343;79;25630;-73
2022/01/14 10:33:08;;;;;;;9.20;5.08;;;;;;;5.37;100.00;100054.34;1810450;78;25626;-72
2022/01/14 10:35:42;;;;;;;5.50;4.67;;;;;;;5.39;100.00;100058.89;1810519;78;27273;-72
2022/01/14 10:38:12;;;;;;;8.95;7.47;;;;;;;5.38;100.00;100061.33;1810041;78;25780;-74
2022/01/14 10:40:55;;;;;;;15.85;9.83;;;;;;;5.38;100.00;100042.55;1810493;79;25660;-73
2022/01/14 10:43:32;;;;;;;9.80;6.05;;;;;;;5.39;100.00;100052.18;1810470;79;25614;-72
2022/01/14 10:45:59;;;;;;;11.12;8.50;;;;;;;5.38;100.00;100055.96;1810123;79;25425;-72
2022/01/14 10:48:31;;;;;;;12.23;9.53;;;;;;;5.38;100.00;100059.98;1810457;79;28071;-73
2022/01/14 10:51:11;;;;;;;12.63;9.35;;;;;;;5.37;100.00;100061.60;1810345;78;25597;-72
2022/01/14 10:53:44;;;;;;;12.53;9.83;;;;;;;5.36;100.00;100063.49;1810304;78;25392;-73
2022/01/14 10:56:14;;;;;;;13.68;9.93;;;;;;;5.35;100.00;100053.05;1801354;79;26234;-73
2022/01/14 10:58:45;;;;;;;14.58;9.85;;;;;;;5.35;100.00;100065.11;1810458;79;25414;-73
2022/01/14 11:01:20;;;;;;;16.23;11.30;;;;;;;5.33;100.00;100056.00;1810271;79;27312;-72
2022/01/14 11:03:57;;;;;;;12.70;9.30;;;;;;;5.34;100.00;100039.36;1810316;78;25400;-74
2022/01/14 11:06:28;;;;;;;13.88;9.45;;;;;;;5.32;100.00;100032.93;1810510;78;25372;-73
2022/01/14 11:09:05;;;;;;;15.95;11.68;;;;;;;5.30;100.00;100029.73;1810164;78;26214;-73
2022/01/14 11:11:35;;;;;;;12.90;9.25;;;;;;;5.32;100.00;100029.45;1801507;79;25379;-74
2022/01/14 11:14:04;;;;;;;11.60;8.28;;;;;;;5.31;100.00;100020.63;1810706;79;28181;-74
2022/01/14 11:16:31;;;;;;;12.58;8.88;;;;;;;5.33;100.00;100026.50;1810905;78;26267;-76
2022/01/14 11:19:01;;;;;;;11.63;9.10;;;;;;;5.35;100.00;100018.17;1810968;79;25546;-76
2022/01/14 11:24:17;;;;;;;13.95;10.05;;;;;;;5.37;100.00;100036.13;1810370;79;25684;-74
2022/01/14 11:26:46;;;;;;;14.40;9.93;;;;;;;5.36;100.00;100019.76;1809918;78;27128;-73
2022/01/14 11:29:17;;;;;;;;;;;;;;;5.36;100.00;100029.14;1812950;78;25622;-75
2022/01/14 11:31:44;;;;;;;15.88;9.18;;;;;;;5.37;100.00;100007.95;1810330;79;25662;-72
2022/01/14 11:34:42;;;;;;;14.38;8.43;;;;;;;5.38;100.00;100023.77;1810454;79;25729;-75
2022/01/14 11:37:31;;;;;;;9.10;6.55;;;;;;;5.39;100.00;100019.20;1810322;78;25547;-74
2022/01/14 11:40:05;;;;;;;20.60;10.50;;;;;;;5.40;100.00;100039.59;1779238;79;27220;-73
2022/01/14 11:42:48;;;;;;;18.70;11.78;;;;;;;5.40;100.00;100023.50;1810505;78;25585;-73
2022/01/14 11:45:21;;;;;;;32.17;14.65;;;;;;;5.38;100.00;100026.45;1810324;79;25572;-73
2022/01/14 11:47:58;;;;;;;;;;;;;;;5.36;100.00;100023.27;1804066;79;25696;-74
2022/01/14 11:50:34;;;;;;;34.92;15.18;;;;;;;5.37;100.00;100020.03;1810290;78;25496;-75
2022/01/14 11:53:02;;;;;;;28.05;14.50;;;;;;;5.38;100.00;100020.27;1810379;78;27306;-73
2022/01/14 11:55:35;;;;;;;26.90;13.30;;;;;;;5.41;100.00;100010.33;1810499;78;25792;-74
2022/01/14 11:58:12;;;;;;;24.40;10.25;;;;;;;5.45;100.00;100023.45;1810456;79;25645;-74
2022/01/14 12:00:41;;;;;;;24.40;11.88;;;;;;;5.51;100.00;100021.52;1810303;78;25631;-73
2022/01/14 12:03:17;;;;;;;30.70;13.78;;;;;;;5.55;100.00;100021.20;1801506;79;25445;-73